Indianapolis, IN (46277)

9:39 AM EST on March 05, 2015 (GMT -0500)
North Fountain Square | Change Station
CLOSE
Current Station
Personal Weather Station
Location: Indianapolis, IN
Elevation: 738 ft
Nearby Weather Stations

Elev 738 ft 39.76 °N, 86.14 °W | Updated 18 seconds ago

Mostly Cloudy
Mostly Cloudy
18.7 °F
Feels Like 19 °F
N
2.0
Wind Variable Wind from East
Gusts 4.9 mph

Today
High -- | Low -- °F
--% Chance of Precip.
Yesterday
High -- | Low -- °F
Precip. -- in
7:12 AM 6:40 PM
Full, 100% visible
Pressure 30.41 in
Visibility 10.0 miles
Clouds Mostly Cloudy 16000 ft
Overcast 18000 ft
Windchill 19 °F
Dew Point 1 °F
Humidity 45%
Rainfall in
Snow Depth Not available.
UV 0 out of 12
Pollen 1.10 out of 12
Air Quality Not available.
Flu Activity Not available.
METAR KIND 051354Z 35007KT 10SM BKN160 OVC180 M08/M15 A3037 RMK AO2 SLP297 T10831150

More Conditions Fewer Conditions

Pressure 30.41 in
Visibility 10.0 miles
Clouds Mostly Cloudy 16000 ft
Overcast 18000 ft
Windchill 19 °F
Dew Point 1 °F
Humidity 45%
Rainfall in
Snow Depth Not available.
UV 0 out of 12
Pollen 1.10 out of 12
Air Quality Not available.
Flu Activity Not available.
METAR KIND 051354Z 35007KT 10SM BKN160 OVC180 M08/M15 A3037 RMK AO2 SLP297 T10831150

More Conditions Fewer Conditions

10-Day Weather Forecast

Almanac

Astronomy

Mar. 05, 2015 Rise Set
Actual Time
Civil Twilight
Nautical Twilight
Astronomical Twilight
Moon
Length of Visible Light
Length of Day
Tomorrow will be .
, % of the Moon is Illuminated

Today's Extremes

State Highs State Lows

Community

WunderPhotos

Upload Photos

1,802,782 photos uploaded!

WunderBlogs® & News

Nearby

Air Quality

  Air Quality AQ Index Pollutant
Not available.

Snow Depth

Station Depth Elevation

Earthquake Activity

City Distance Mag. Time & Date
Minimum magnitude displayed is 2.5.

Coastal Water Temperatures

Place Temperature

Nearby Weather Stations